Aviation Digital Data Service (ADDS)

Output produced by TAFs form (1121 UTC 31 March 2015)
found at http://aviationweather.gov/adds/tafs/
 
KABQ 310534Z 3106/0106 VRB06KT P6SM SCT200 
     FM312000 27008KT P6SM SCT120 SCT200